Terminal Aerodrome Forecast
Issued by NWS Billings, MT

Home | Current Version | Previous Version | Text Only | Print | Product List | Glossary Off
Versions: 1 2 3 4 5 6 7 8 9 10 11 12 13 14 15 16 17 18 19 20 21 22 23 24 25 26 27 28 29 30 31 32 33

000
FTUS45 KBYZ 021122
TAFMLS
TAF
KMLS 021122Z 0212/0312 31007KT P6SM VCSH SCT007 BKN100
      TEMPO 0212/0214 BKN007
     FM021400 30009KT P6SM BKN012
     FM021600 30014G26KT P6SM SCT025
     FM030300 01008KT P6SM VCTS SCT025 BKN080CB
     FM030600 36006KT P6SM VCFG BKN015=

USA.gov is the U.S. government's official web portal to all federal, state and local government web resources and services.